Raymore, Missouri
Current Conditions -  °F | °C
As of 9:53 PM on Monday 22 Dec 2014 (Local Time) from KLXT Reporting Station
Clear Clear  
Wind Chill: 36°   Ceiling: Unl
Heat Index: 41°   Visibility: 10mi
Dew Point: 37°   Wind: 8mph
Humidity: 86%   Direction: 230°SW
Pressure: 29.54"   Gusts: NA
Location:  38.8°N, 94.46°W
Report Text: KLXT 230353Z AUTO 23007KT 10SM CLR 05/03 A2954 RMK AO2 SLP006 T00500028 TSNO
Loading
Personal Weather Stations






























Interactive Weather Map New forecast layout! Learn more

10-Day Weather Forecast

Advertisements
Track Severe Weather on mobile